createdAt,value
2022-12-18T00:00:11.798Z,8.63
2022-12-18T00:01:34.343Z,5.60
2022-12-18T00:02:45.948Z,14.55
2022-12-18T00:03:57.689Z,12.43
2022-12-18T00:05:09.348Z,16.55
2022-12-18T00:06:21.379Z,14.13
2022-12-18T00:07:32.790Z,13.40
2022-12-18T00:08:44.967Z,12.65
2022-12-18T00:09:56.432Z,15.45
2022-12-18T00:11:08.798Z,12.38
2022-12-18T00:12:20.263Z,8.15
2022-12-18T00:13:31.693Z,11.82
2022-12-18T00:14:43.217Z,11.70
2022-12-18T00:15:54.706Z,13.98
2022-12-18T00:17:08.208Z,13.43
2022-12-18T00:18:20.877Z,13.65
2022-12-18T00:19:32.347Z,10.18
2022-12-18T00:20:43.819Z,12.25
2022-12-18T00:21:55.306Z,9.75
2022-12-18T00:23:07.928Z,10.75
2022-12-18T00:24:19.901Z,13.85
2022-12-18T00:25:33.812Z,16.58
2022-12-18T00:26:45.288Z,18.98
2022-12-18T00:27:56.734Z,18.27
2022-12-18T00:29:10.947Z,17.20
2022-12-18T00:30:22.393Z,13.68
2022-12-18T00:31:34.502Z,20.67
2022-12-18T00:32:46.082Z,17.58
2022-12-18T00:33:58.388Z,25.33
2022-12-18T00:35:09.917Z,22.13
2022-12-18T00:36:22.332Z,21.30
2022-12-18T00:37:37.171Z,20.15
2022-12-18T00:38:48.862Z,23.08
2022-12-18T00:40:00.319Z,24.75
2022-12-18T00:41:12.711Z,26.75
2022-12-18T00:42:42.588Z,31.95
2022-12-18T00:43:54.002Z,27.90
2022-12-18T00:45:12.067Z,22.95
2022-12-18T00:46:24.238Z,25.08
2022-12-18T00:47:35.682Z,21.08
2022-12-18T00:48:47.174Z,26.95
2022-12-18T00:49:58.688Z,32.15
2022-12-18T00:51:10.139Z,34.45
2022-12-18T00:52:21.597Z,25.85
2022-12-18T00:53:32.995Z,30.42
2022-12-18T00:54:44.404Z,22.90
2022-12-18T00:55:55.819Z,20.85
2022-12-18T00:57:07.304Z,23.20
2022-12-18T00:58:18.773Z,19.02
2022-12-18T00:59:31.107Z,21.75
2022-12-18T01:00:42.944Z,20.48
2022-12-18T01:01:54.535Z,18.25
2022-12-18T01:03:06.712Z,17.58
2022-12-18T01:04:18.168Z,22.67
2022-12-18T01:05:29.600Z,24.00
2022-12-18T01:06:41.160Z,26.05
2022-12-18T01:07:52.720Z,23.98
2022-12-18T01:09:04.198Z,21.95
2022-12-18T01:10:15.730Z,17.52
2022-12-18T01:11:27.245Z,14.20
2022-12-18T01:12:38.668Z,14.82
2022-12-18T01:13:50.200Z,21.90
2022-12-18T01:15:01.703Z,14.70
2022-12-18T01:16:14.203Z,13.50
2022-12-18T01:17:25.727Z,19.75
2022-12-18T01:18:37.156Z,10.70
2022-12-18T01:19:48.591Z,12.48
2022-12-18T01:20:59.980Z,10.10
2022-12-18T01:22:11.396Z,10.35
2022-12-18T01:23:22.862Z,12.48
2022-12-18T01:24:34.344Z,10.40
2022-12-18T01:25:45.913Z,13.90
2022-12-18T01:26:58.254Z,9.93
2022-12-18T01:28:09.677Z,11.43
2022-12-18T01:29:21.221Z,12.90
2022-12-18T01:30:32.701Z,14.48
2022-12-18T01:31:44.257Z,12.18
2022-12-18T01:32:55.788Z,7.88
2022-12-18T01:34:07.239Z,14.25
2022-12-18T01:35:18.768Z,10.25
2022-12-18T01:36:31.450Z,10.43
2022-12-18T01:37:42.884Z,12.63
2022-12-18T01:38:54.475Z,11.15
2022-12-18T01:40:06.251Z,11.90
2022-12-18T01:41:18.735Z,7.55
2022-12-18T01:42:30.171Z,12.20
2022-12-18T01:43:46.205Z,12.77
2022-12-18T01:44:57.692Z,10.88
2022-12-18T01:46:10.270Z,12.50
2022-12-18T01:47:41.230Z,9.65
2022-12-18T01:48:54.887Z,11.25
2022-12-18T01:50:26.767Z,10.63
2022-12-18T01:51:38.321Z,11.18
2022-12-18T01:52:52.817Z,9.88
2022-12-18T01:54:04.232Z,10.13
2022-12-18T01:55:17.572Z,13.05
2022-12-18T01:56:29.314Z,11.52
2022-12-18T01:57:41.595Z,19.05
2022-12-18T01:59:06.916Z,13.50
2022-12-18T02:00:19.731Z,13.57
2022-12-18T02:01:31.988Z,16.58
2022-12-18T02:02:44.605Z,12.02
2022-12-18T02:03:56.292Z,12.57
2022-12-18T02:05:08.263Z,12.63
2022-12-18T02:06:27.909Z,10.57
2022-12-18T02:07:39.297Z,14.90
2022-12-18T02:09:03.023Z,13.60
2022-12-18T02:10:37.540Z,13.77
2022-12-18T02:12:03.776Z,18.42
2022-12-18T02:13:15.220Z,20.30
2022-12-18T02:14:35.925Z,16.70
2022-12-18T02:15:52.207Z,14.00
2022-12-18T02:17:08.087Z,13.55
2022-12-18T02:18:22.012Z,18.55
2022-12-18T02:19:52.471Z,18.08
2022-12-18T02:21:06.722Z,15.70
2022-12-18T02:22:29.231Z,18.40
2022-12-18T02:23:55.640Z,16.63
2022-12-18T02:25:25.088Z,19.48
2022-12-18T02:26:41.737Z,12.65
2022-12-18T02:27:53.572Z,14.80
2022-12-18T02:29:07.106Z,15.23
2022-12-18T02:30:19.053Z,19.48
2022-12-18T02:31:32.553Z,17.98
2022-12-18T02:32:47.152Z,15.88
2022-12-18T02:34:00.812Z,10.40
2022-12-18T02:35:14.848Z,12.15
2022-12-18T02:36:27.317Z,18.98
2022-12-18T02:37:40.144Z,34.50
2022-12-18T02:38:51.939Z,17.05
2022-12-18T02:40:04.512Z,15.23
2022-12-18T02:41:16.922Z,13.18
2022-12-18T02:42:29.114Z,11.27
2022-12-18T02:43:41.243Z,14.00
2022-12-18T02:44:53.109Z,12.38
2022-12-18T02:46:24.772Z,10.50
2022-12-18T02:47:39.050Z,11.98
2022-12-18T02:48:50.968Z,13.23
2022-12-18T02:50:05.163Z,12.02
2022-12-18T02:51:30.552Z,12.52
2022-12-18T02:52:50.917Z,11.10
2022-12-18T02:54:08.411Z,12.55
2022-12-18T02:55:23.034Z,10.98
2022-12-18T02:56:40.767Z,11.80
2022-12-18T02:57:57.433Z,9.73
2022-12-18T02:59:08.855Z,7.65
2022-12-18T03:00:20.329Z,9.07
2022-12-18T03:01:38.022Z,8.50
2022-12-18T03:02:54.190Z,10.75
2022-12-18T03:04:10.161Z,11.15
2022-12-18T03:05:23.912Z,9.70
2022-12-18T03:06:38.877Z,7.78
2022-12-18T03:07:54.176Z,9.48
2022-12-18T03:09:08.217Z,7.32
2022-12-18T03:10:22.839Z,9.25
2022-12-18T03:11:53.744Z,11.35
2022-12-18T03:13:14.578Z,24.65
2022-12-18T03:14:26.942Z,49.70
2022-12-18T03:15:52.743Z,39.65
2022-12-18T03:17:05.183Z,75.07
2022-12-18T03:18:19.421Z,41.67
2022-12-18T03:19:32.896Z,26.98
2022-12-18T03:20:45.432Z,16.77
2022-12-18T03:21:57.752Z,19.70
2022-12-18T03:23:14.031Z,12.05
2022-12-18T03:24:27.287Z,11.73
2022-12-18T03:25:40.635Z,10.68
2022-12-18T03:26:54.644Z,9.38
2022-12-18T03:28:07.001Z,10.48
2022-12-18T03:29:44.459Z,14.68
2022-12-18T03:30:58.028Z,12.02
2022-12-18T03:32:11.663Z,12.35
2022-12-18T03:33:36.022Z,9.65
2022-12-18T03:34:48.831Z,11.27
2022-12-18T03:36:00.245Z,13.13
2022-12-18T03:37:11.712Z,12.13
2022-12-18T03:38:23.211Z,14.18
2022-12-18T03:39:35.148Z,15.30
2022-12-18T03:40:47.029Z,13.52
2022-12-18T03:41:58.468Z,11.48
2022-12-18T03:43:11.983Z,10.73
2022-12-18T03:44:43.806Z,15.45
2022-12-18T03:45:59.934Z,8.15
2022-12-18T03:47:17.593Z,9.68
2022-12-18T03:48:36.503Z,9.07
2022-12-18T03:49:47.979Z,9.30
2022-12-18T03:51:06.596Z,7.30
2022-12-18T03:52:20.896Z,10.80
2022-12-18T03:53:41.746Z,8.10
2022-12-18T03:54:55.217Z,8.27
2022-12-18T03:56:07.624Z,9.25
2022-12-18T03:57:23.356Z,9.20
2022-12-18T03:58:37.724Z,6.28
2022-12-18T03:59:51.546Z,9.75
2022-12-18T04:01:04.955Z,10.73
2022-12-18T04:02:18.020Z,8.73
2022-12-18T04:03:30.934Z,12.43
2022-12-18T04:04:43.028Z,17.40
2022-12-18T04:05:55.846Z,14.02
2022-12-18T04:07:07.787Z,11.88
2022-12-18T04:08:19.896Z,9.90
2022-12-18T04:09:32.199Z,10.30
2022-12-18T04:10:43.896Z,10.13
2022-12-18T04:11:55.362Z,8.50
2022-12-18T04:13:06.796Z,6.28
2022-12-18T04:14:18.695Z,7.30
2022-12-18T04:15:30.246Z,8.43
2022-12-18T04:16:41.678Z,6.65
2022-12-18T04:17:53.293Z,8.05
2022-12-18T04:19:05.053Z,6.43
2022-12-18T04:20:17.035Z,9.38
2022-12-18T04:21:28.491Z,5.35
2022-12-18T04:22:39.923Z,6.43
2022-12-18T04:23:52.689Z,8.90
2022-12-18T04:25:04.241Z,5.43
2022-12-18T04:26:15.680Z,11.82
2022-12-18T04:27:27.145Z,13.65
2022-12-18T04:28:38.612Z,21.98
2022-12-18T04:29:50.041Z,15.05
2022-12-18T04:31:01.571Z,9.63
2022-12-18T04:32:13.067Z,11.05
2022-12-18T04:33:24.541Z,10.30
2022-12-18T04:34:36.005Z,12.98
2022-12-18T04:35:47.448Z,9.05
2022-12-18T04:36:58.844Z,11.20
2022-12-18T04:38:10.930Z,14.27
2022-12-18T04:39:22.854Z,16.50
2022-12-18T04:40:34.286Z,15.10
2022-12-18T04:41:45.752Z,14.30
2022-12-18T04:42:57.204Z,14.20
2022-12-18T04:44:08.733Z,13.82
2022-12-18T04:45:20.250Z,13.23
2022-12-18T04:46:31.839Z,13.43
2022-12-18T04:47:43.266Z,13.05
2022-12-18T04:48:54.692Z,14.38
2022-12-18T04:50:06.394Z,16.17
2022-12-18T04:51:22.003Z,20.25
2022-12-18T04:52:36.267Z,13.35
2022-12-18T04:53:47.736Z,13.70
2022-12-18T04:54:59.180Z,9.77
2022-12-18T04:56:12.216Z,8.20
2022-12-18T04:57:24.061Z,6.70
2022-12-18T04:58:35.721Z,7.53
2022-12-18T04:59:47.166Z,5.80
2022-12-18T05:00:58.587Z,5.55
2022-12-18T05:02:10.080Z,6.18
2022-12-18T05:03:21.647Z,7.63
2022-12-18T05:04:33.219Z,5.68
2022-12-18T05:05:44.933Z,8.07
2022-12-18T05:06:56.374Z,6.45
2022-12-18T05:08:07.830Z,4.78
2022-12-18T05:09:19.228Z,4.38
2022-12-18T05:10:37.588Z,8.15
2022-12-18T05:11:49.654Z,10.20
2022-12-18T05:13:01.475Z,8.93
2022-12-18T05:14:13.088Z,7.60
2022-12-18T05:15:25.012Z,9.05
2022-12-18T05:16:36.532Z,9.38
2022-12-18T05:17:47.918Z,13.40
2022-12-18T05:18:59.372Z,18.98
2022-12-18T05:20:11.056Z,6.88
2022-12-18T05:21:22.500Z,11.00
2022-12-18T05:22:33.999Z,8.32
2022-12-18T05:23:45.458Z,14.70
2022-12-18T05:24:57.177Z,20.10
2022-12-18T05:26:08.911Z,19.35
2022-12-18T05:27:21.616Z,16.95
2022-12-18T05:28:34.011Z,16.92
2022-12-18T05:29:45.443Z,30.38
2022-12-18T05:30:58.203Z,24.42
2022-12-18T05:32:09.649Z,31.15
2022-12-18T05:33:21.690Z,14.30
2022-12-18T05:34:34.490Z,18.48
2022-12-18T05:35:50.945Z,22.27
2022-12-18T05:37:02.414Z,16.90
2022-12-18T05:38:13.876Z,21.52
2022-12-18T05:39:25.361Z,24.77
2022-12-18T05:40:37.730Z,21.20
2022-12-18T05:41:49.229Z,30.63
2022-12-18T05:43:00.758Z,25.50
2022-12-18T05:44:12.590Z,32.78
2022-12-18T05:45:24.054Z,26.60
2022-12-18T05:46:35.676Z,39.03
2022-12-18T05:47:47.179Z,48.17
2022-12-18T05:49:02.319Z,44.42
2022-12-18T05:50:13.725Z,45.67
2022-12-18T05:51:25.142Z,51.30
2022-12-18T05:52:36.605Z,43.75
2022-12-18T05:53:49.192Z,42.22
2022-12-18T05:55:00.593Z,35.95
2022-12-18T05:56:13.805Z,48.40
2022-12-18T05:57:25.255Z,43.45
2022-12-18T05:58:37.109Z,37.30
2022-12-18T05:59:48.550Z,44.75
2022-12-18T06:01:07.077Z,54.42
2022-12-18T06:02:18.698Z,50.05
2022-12-18T06:03:33.913Z,43.85
2022-12-18T06:04:45.598Z,31.83
2022-12-18T06:05:57.139Z,32.75
2022-12-18T06:07:08.598Z,38.08
2022-12-18T06:08:20.068Z,39.15
2022-12-18T06:09:31.502Z,53.75
2022-12-18T06:10:42.983Z,59.08
2022-12-18T06:11:54.466Z,54.67
2022-12-18T06:13:06.640Z,48.85
2022-12-18T06:14:18.335Z,49.92
2022-12-18T06:15:29.749Z,48.92
2022-12-18T06:16:41.248Z,47.83
2022-12-18T06:17:52.696Z,38.45
2022-12-18T06:19:05.372Z,33.15
2022-12-18T06:20:16.873Z,37.67
2022-12-18T06:21:28.965Z,39.95
2022-12-18T06:22:40.434Z,33.05
2022-12-18T06:23:51.909Z,36.65
2022-12-18T06:25:03.682Z,35.35
2022-12-18T06:26:15.493Z,54.92
2022-12-18T06:27:26.925Z,52.53
2022-12-18T06:28:38.398Z,38.78
2022-12-18T06:29:49.866Z,43.05
2022-12-18T06:31:01.497Z,38.92
2022-12-18T06:32:13.064Z,34.85
2022-12-18T06:33:27.042Z,37.80
2022-12-18T06:34:38.632Z,34.13
2022-12-18T06:35:50.102Z,31.13
2022-12-18T06:37:01.662Z,33.75
2022-12-18T06:38:13.131Z,37.33
2022-12-18T06:39:24.872Z,42.78
2022-12-18T06:40:37.951Z,38.30
2022-12-18T06:41:49.424Z,35.58
2022-12-18T06:43:00.983Z,43.08
2022-12-18T06:44:12.418Z,35.92
2022-12-18T06:45:24.323Z,29.90
2022-12-18T06:46:35.839Z,28.60
2022-12-18T06:47:47.328Z,35.88
2022-12-18T06:48:58.736Z,32.22
2022-12-18T06:50:10.445Z,29.65
2022-12-18T06:51:22.661Z,29.88
2022-12-18T06:52:34.567Z,32.65
2022-12-18T06:53:45.998Z,37.25
2022-12-18T06:54:57.529Z,29.27
2022-12-18T06:56:10.643Z,32.15
2022-12-18T06:57:22.628Z,49.15
2022-12-18T06:58:34.084Z,49.17
2022-12-18T06:59:45.691Z,55.75
2022-12-18T07:01:04.099Z,56.22
2022-12-18T07:02:15.668Z,62.67
2022-12-18T07:03:27.463Z,67.43
2022-12-18T07:04:38.899Z,109.97
2022-12-18T07:05:50.394Z,83.07
2022-12-18T07:07:01.916Z,62.42
2022-12-18T07:08:13.337Z,65.75
2022-12-18T07:09:25.101Z,55.75
2022-12-18T07:10:47.424Z,58.20
2022-12-18T07:12:00.449Z,56.28
2022-12-18T07:13:11.899Z,53.97
2022-12-18T07:14:23.584Z,54.70
2022-12-18T07:15:35.193Z,53.97
2022-12-18T07:16:46.660Z,40.28
2022-12-18T07:17:58.151Z,47.47
2022-12-18T07:19:09.569Z,74.97
2022-12-18T07:20:21.031Z,72.70
2022-12-18T07:21:32.433Z,54.60
2022-12-18T07:22:43.884Z,48.95
2022-12-18T07:23:55.319Z,42.80
2022-12-18T07:25:07.329Z,42.85
2022-12-18T07:26:20.041Z,43.17
2022-12-18T07:27:31.629Z,39.85
2022-12-18T07:28:43.510Z,75.10
2022-12-18T07:29:56.013Z,55.75
2022-12-18T07:31:08.254Z,69.50
2022-12-18T07:32:19.696Z,73.75
2022-12-18T07:33:31.171Z,58.90
2022-12-18T07:34:43.480Z,73.78
2022-12-18T07:35:54.968Z,71.88
2022-12-18T07:37:06.426Z,72.10
2022-12-18T07:38:18.009Z,60.78
2022-12-18T07:39:29.507Z,43.35
2022-12-18T07:40:40.964Z,44.42
2022-12-18T07:42:11.018Z,62.85
2022-12-18T07:43:22.417Z,56.38
2022-12-18T07:44:33.836Z,51.47
2022-12-18T07:45:45.782Z,38.13
2022-12-18T07:46:57.263Z,48.63
2022-12-18T07:48:08.775Z,281.95
2022-12-18T07:49:20.205Z,222.90
2022-12-18T07:50:31.870Z,168.85
2022-12-18T07:51:43.375Z,85.63
2022-12-18T07:52:54.892Z,35.83
2022-12-18T07:54:06.352Z,49.35
2022-12-18T07:55:17.801Z,40.83
2022-12-18T07:56:30.869Z,52.22
2022-12-18T07:57:50.528Z,55.70
2022-12-18T07:59:04.213Z,26.73
2022-12-18T08:00:15.806Z,29.60
2022-12-18T08:01:27.576Z,32.20
2022-12-18T08:02:39.406Z,25.23
2022-12-18T08:03:52.184Z,28.10
2022-12-18T08:05:04.510Z,32.78
2022-12-18T08:06:16.374Z,31.00
2022-12-18T08:07:27.861Z,25.17
2022-12-18T08:08:39.395Z,27.50
2022-12-18T08:09:50.875Z,54.72
2022-12-18T08:11:02.378Z,55.60
2022-12-18T08:12:13.785Z,51.50
2022-12-18T08:13:27.908Z,47.08
2022-12-18T08:14:39.365Z,39.22
2022-12-18T08:16:17.191Z,37.65
2022-12-18T08:17:28.689Z,43.70
2022-12-18T08:18:40.102Z,38.75
2022-12-18T08:19:51.543Z,39.83
2022-12-18T08:21:16.328Z,53.92
2022-12-18T08:22:27.728Z,51.38
2022-12-18T08:23:43.047Z,60.03
2022-12-18T08:24:54.903Z,55.83
2022-12-18T08:26:06.464Z,57.92
2022-12-18T08:27:29.401Z,61.30
2022-12-18T08:28:41.598Z,61.20
2022-12-18T08:29:53.042Z,47.67
2022-12-18T08:31:04.969Z,39.65
2022-12-18T08:32:16.560Z,33.28
2022-12-18T08:33:28.005Z,27.13
2022-12-18T08:34:39.461Z,29.02
2022-12-18T08:35:50.854Z,28.23
2022-12-18T08:37:02.298Z,34.83
2022-12-18T08:38:13.861Z,28.40
2022-12-18T08:39:25.555Z,29.35
2022-12-18T08:40:37.161Z,22.77
2022-12-18T08:42:10.470Z,19.23
2022-12-18T08:43:41.055Z,25.55
2022-12-18T08:44:52.793Z,19.70
2022-12-18T08:46:04.360Z,20.70
2022-12-18T08:47:15.855Z,23.23
2022-12-18T08:48:27.273Z,16.63
2022-12-18T08:49:39.304Z,14.30
2022-12-18T08:50:57.873Z,13.90
2022-12-18T08:52:10.102Z,13.75
2022-12-18T08:53:21.606Z,15.00
2022-12-18T08:54:33.054Z,15.15
2022-12-18T08:55:49.982Z,13.60
2022-12-18T08:57:01.743Z,10.43
2022-12-18T08:58:13.183Z,11.68
2022-12-18T08:59:24.647Z,10.52
2022-12-18T09:00:36.224Z,12.85
2022-12-18T09:01:48.006Z,17.88
2022-12-18T09:02:59.729Z,13.35
2022-12-18T09:04:11.314Z,11.23
2022-12-18T09:05:22.766Z,17.00
2022-12-18T09:06:34.217Z,14.50
2022-12-18T09:07:45.644Z,19.17
2022-12-18T09:08:58.333Z,16.70
2022-12-18T09:10:10.124Z,19.80
2022-12-18T09:11:23.579Z,15.70
2022-12-18T09:12:35.339Z,18.27
2022-12-18T09:13:47.004Z,13.35
2022-12-18T09:14:58.504Z,15.68
2022-12-18T09:16:09.985Z,15.65
2022-12-18T09:17:21.530Z,16.08
2022-12-18T09:18:33.158Z,15.50
2022-12-18T09:19:45.070Z,24.67
2022-12-18T09:20:57.772Z,14.23
2022-12-18T09:22:10.606Z,17.48
2022-12-18T09:23:22.317Z,21.77
2022-12-18T09:24:33.792Z,17.95
2022-12-18T09:25:45.649Z,19.48
2022-12-18T09:26:57.963Z,22.67
2022-12-18T09:28:14.025Z,20.40
2022-12-18T09:29:25.517Z,21.02
2022-12-18T09:30:40.934Z,21.48
2022-12-18T09:31:52.626Z,19.67
2022-12-18T09:33:04.095Z,16.20
2022-12-18T09:34:17.800Z,15.43
2022-12-18T09:35:29.312Z,14.48
2022-12-18T09:36:40.827Z,15.38
2022-12-18T09:37:52.264Z,27.23
2022-12-18T09:39:08.263Z,20.77
2022-12-18T09:40:24.569Z,19.23
2022-12-18T09:41:47.090Z,19.80
2022-12-18T09:43:00.775Z,21.58
2022-12-18T09:44:18.850Z,23.58
2022-12-18T09:45:35.625Z,22.15
2022-12-18T09:46:55.742Z,30.73
2022-12-18T09:48:11.240Z,23.60
2022-12-18T09:49:25.138Z,30.25
2022-12-18T09:50:38.408Z,18.58
2022-12-18T09:51:58.842Z,24.75
2022-12-18T09:53:17.348Z,26.92
2022-12-18T09:54:38.499Z,31.35
2022-12-18T09:55:51.456Z,20.23
2022-12-18T09:57:03.059Z,23.92
2022-12-18T09:58:26.699Z,23.88
2022-12-18T09:59:40.768Z,17.92
2022-12-18T10:00:58.618Z,27.40
2022-12-18T10:02:18.716Z,28.75
2022-12-18T10:03:30.479Z,18.70
2022-12-18T10:04:42.034Z,22.65
2022-12-18T10:06:09.005Z,29.73
2022-12-18T10:07:24.277Z,19.23
2022-12-18T10:08:54.471Z,23.60
2022-12-18T10:10:14.858Z,24.70
2022-12-18T10:11:58.570Z,12.38
2022-12-18T10:13:15.644Z,14.10
2022-12-18T10:14:45.735Z,12.10
2022-12-18T10:16:15.005Z,16.08
2022-12-18T10:17:35.755Z,15.93
2022-12-18T10:18:50.171Z,12.80
2022-12-18T10:20:01.647Z,16.20
2022-12-18T10:21:16.927Z,14.37
2022-12-18T10:22:46.940Z,13.00
2022-12-18T10:24:03.130Z,15.73
2022-12-18T10:25:30.325Z,20.65
2022-12-18T10:26:42.524Z,21.20
2022-12-18T10:27:56.444Z,19.23
2022-12-18T10:29:17.405Z,19.92
2022-12-18T10:30:29.935Z,18.33
2022-12-18T10:31:41.703Z,20.60
2022-12-18T10:32:53.439Z,20.57
2022-12-18T10:34:04.876Z,23.85
2022-12-18T10:35:27.826Z,31.43
2022-12-18T10:36:39.661Z,27.20
2022-12-18T10:38:03.228Z,20.70
2022-12-18T10:39:16.368Z,19.75
2022-12-18T10:40:27.791Z,18.45
2022-12-18T10:41:39.349Z,23.33
2022-12-18T10:43:20.151Z,16.73
2022-12-18T10:44:31.596Z,21.02
2022-12-18T10:45:44.555Z,25.83
2022-12-18T10:47:06.248Z,24.23
2022-12-18T10:48:23.135Z,23.03
2022-12-18T10:49:36.097Z,13.47
2022-12-18T10:51:10.359Z,18.00
2022-12-18T10:52:22.991Z,11.20
2022-12-18T10:53:35.714Z,11.02
2022-12-18T10:55:01.737Z,13.38
2022-12-18T10:56:13.615Z,10.43
2022-12-18T10:57:42.470Z,10.87
2022-12-18T10:59:01.674Z,9.97
2022-12-18T11:00:24.567Z,10.37
2022-12-18T11:01:53.500Z,12.37
2022-12-18T11:03:25.057Z,16.25
2022-12-18T11:04:50.440Z,14.02
2022-12-18T11:06:09.208Z,13.00
2022-12-18T11:07:20.807Z,10.73
2022-12-18T11:08:32.745Z,12.53
2022-12-18T11:09:44.139Z,8.25
2022-12-18T11:10:55.577Z,13.10
2022-12-18T11:12:16.613Z,10.23
2022-12-18T11:13:30.268Z,11.30
2022-12-18T11:14:48.618Z,12.00
2022-12-18T11:16:00.587Z,15.07
2022-12-18T11:17:26.652Z,13.57
2022-12-18T11:18:39.099Z,11.27
2022-12-18T11:20:00.749Z,9.70
2022-12-18T11:21:12.931Z,14.57
2022-12-18T11:22:29.152Z,11.37
2022-12-18T11:24:00.890Z,9.90
2022-12-18T11:26:44.426Z,15.40
2022-12-18T11:27:57.157Z,15.13
2022-12-18T11:29:18.121Z,13.63
2022-12-18T11:30:31.936Z,13.00
2022-12-18T11:31:44.033Z,14.53
2022-12-18T11:33:03.960Z,13.40
2022-12-18T11:34:34.266Z,16.33
2022-12-18T11:35:50.742Z,11.30
2022-12-18T11:37:04.211Z,13.10
2022-12-18T11:38:26.544Z,13.60
2022-12-18T11:39:47.339Z,17.73
2022-12-18T11:41:05.093Z,12.67
2022-12-18T11:42:26.257Z,8.73
2022-12-18T11:43:37.947Z,17.30
2022-12-18T11:44:52.063Z,11.77
2022-12-18T11:46:13.526Z,9.33
2022-12-18T11:47:40.217Z,11.33
2022-12-18T11:49:02.566Z,11.63
2022-12-18T11:50:17.014Z,18.43
2022-12-18T11:51:36.469Z,18.80
2022-12-18T11:52:52.780Z,15.53
2022-12-18T11:54:14.951Z,32.07
2022-12-18T11:55:46.871Z,33.20
2022-12-18T11:57:04.719Z,22.97
2022-12-18T11:58:16.210Z,13.50
2022-12-18T11:59:31.418Z,13.50
2022-12-18T12:01:11.568Z,17.63
2022-12-18T12:02:41.202Z,18.90
2022-12-18T12:04:01.974Z,18.60
2022-12-18T12:05:19.901Z,23.20
2022-12-18T12:06:49.912Z,14.37
2022-12-18T12:08:20.282Z,17.30
2022-12-18T12:09:42.185Z,13.60
2022-12-18T12:10:59.972Z,13.77
2022-12-18T12:12:17.573Z,11.63
2022-12-18T12:13:35.069Z,14.10
2022-12-18T12:14:49.498Z,11.63
2022-12-18T12:16:27.285Z,15.43
2022-12-18T12:17:53.762Z,12.27
2022-12-18T12:19:05.176Z,10.60
2022-12-18T12:20:16.803Z,9.73
2022-12-18T12:21:28.309Z,13.93
2022-12-18T12:22:59.507Z,16.23
2022-12-18T12:24:11.272Z,16.20
2022-12-18T12:25:41.767Z,15.53
2022-12-18T12:26:59.188Z,15.47
2022-12-18T12:28:36.923Z,13.77
2022-12-18T12:30:00.079Z,15.60
2022-12-18T12:31:11.566Z,16.40
2022-12-18T12:32:41.575Z,16.77
2022-12-18T12:34:11.779Z,17.57
2022-12-18T12:35:29.154Z,15.50
2022-12-18T12:36:59.472Z,12.33
2022-12-18T12:38:20.836Z,15.50
2022-12-18T12:39:35.565Z,19.00
2022-12-18T12:41:02.533Z,14.73
2022-12-18T12:42:45.683Z,14.13
2022-12-18T12:43:58.682Z,14.27
2022-12-18T12:45:15.886Z,13.93
2022-12-18T12:46:27.701Z,12.33
2022-12-18T12:47:40.776Z,11.37
2022-12-18T12:48:57.580Z,12.37
2022-12-18T12:50:15.518Z,19.17
2022-12-18T12:51:28.434Z,21.77
2022-12-18T12:52:56.689Z,23.70
2022-12-18T12:54:15.752Z,20.10
2022-12-18T12:55:29.801Z,19.33
2022-12-18T12:56:47.221Z,21.10
2022-12-18T12:57:59.080Z,19.90
2022-12-18T12:59:16.718Z,19.73
2022-12-18T13:00:31.882Z,22.20
2022-12-18T13:01:43.559Z,16.37
2022-12-18T13:03:21.284Z,20.07
2022-12-18T13:04:48.528Z,15.73
2022-12-18T13:06:04.365Z,17.80
2022-12-18T13:07:19.077Z,20.70
2022-12-18T13:08:34.209Z,17.40
2022-12-18T13:10:05.557Z,18.00
2022-12-18T13:11:49.243Z,18.10
2022-12-18T13:13:10.588Z,15.23
2022-12-18T13:14:32.798Z,30.17
2022-12-18T13:15:48.406Z,28.37
2022-12-18T13:17:28.461Z,26.50
2022-12-18T13:18:48.933Z,21.07
2022-12-18T13:20:08.982Z,30.83
2022-12-18T13:21:25.693Z,30.57
2022-12-18T13:22:43.221Z,31.60
2022-12-18T13:23:55.080Z,32.27
2022-12-18T13:25:25.250Z,25.17
2022-12-18T13:26:37.052Z,19.83
2022-12-18T13:28:06.725Z,23.40
2022-12-18T13:29:36.993Z,24.40
2022-12-18T13:30:58.035Z,25.47
2022-12-18T13:32:26.209Z,21.93
2022-12-18T13:34:02.158Z,24.37
2022-12-18T13:35:23.034Z,18.83
2022-12-18T13:36:36.273Z,22.27
2022-12-18T13:37:57.015Z,20.80
2022-12-18T13:39:11.608Z,19.83
2022-12-18T13:40:41.524Z,23.70
2022-12-18T13:41:54.288Z,26.33
2022-12-18T13:43:21.214Z,24.20
2022-12-18T13:44:38.530Z,23.37
2022-12-18T13:46:10.470Z,27.67
2022-12-18T13:47:35.685Z,26.70
2022-12-18T13:48:54.880Z,23.50
2022-12-18T13:50:28.595Z,19.33
2022-12-18T13:51:51.768Z,19.93
2022-12-18T13:53:04.967Z,23.30
2022-12-18T13:54:19.753Z,33.93
2022-12-18T13:55:31.740Z,39.03
2022-12-18T13:56:46.512Z,31.50
2022-12-18T13:58:05.184Z,27.73
2022-12-18T13:59:19.037Z,26.97
2022-12-18T14:00:34.141Z,21.93
2022-12-18T14:01:47.895Z,24.27
2022-12-18T14:03:00.214Z,25.33
2022-12-18T14:04:13.155Z,27.23
2022-12-18T14:05:31.022Z,28.10
2022-12-18T14:06:46.480Z,28.03
2022-12-18T14:08:06.699Z,27.30
2022-12-18T14:09:30.192Z,27.47
2022-12-18T14:10:48.700Z,27.97
2022-12-18T14:12:20.803Z,15.97
2022-12-18T14:13:35.118Z,19.67
2022-12-18T14:14:48.407Z,19.37
2022-12-18T14:16:05.891Z,18.23
2022-12-18T14:17:17.620Z,15.80
2022-12-18T14:18:40.320Z,13.63
2022-12-18T14:19:52.727Z,20.03
2022-12-18T14:21:04.957Z,16.67
2022-12-18T14:22:21.110Z,20.17
2022-12-18T14:23:35.538Z,23.10
2022-12-18T14:24:47.906Z,31.13
2022-12-18T14:26:05.428Z,30.60
2022-12-18T14:27:22.304Z,33.30
2022-12-18T14:28:33.769Z,36.00
2022-12-18T14:29:45.724Z,27.03
2022-12-18T14:30:57.696Z,30.97
2022-12-18T14:32:19.013Z,26.63
2022-12-18T14:33:30.592Z,28.50
2022-12-18T14:34:42.095Z,22.47
2022-12-18T14:35:56.494Z,30.63
2022-12-18T14:37:10.701Z,29.23
2022-12-18T14:38:23.305Z,28.47
2022-12-18T14:39:34.898Z,29.13
2022-12-18T14:40:46.745Z,29.60
2022-12-18T14:41:58.417Z,28.10
2022-12-18T14:43:11.658Z,25.77
2022-12-18T14:44:24.451Z,23.57
2022-12-18T14:45:42.568Z,20.52
2022-12-18T14:46:54.778Z,17.97
2022-12-18T14:48:07.548Z,18.90
2022-12-18T14:49:25.305Z,27.10
2022-12-18T14:50:37.324Z,22.73
2022-12-18T14:51:56.072Z,21.77
2022-12-18T14:53:21.093Z,24.07
2022-12-18T14:54:33.264Z,21.38
2022-12-18T14:55:47.612Z,31.20
2022-12-18T14:56:59.050Z,22.90
2022-12-18T14:58:14.721Z,33.20
2022-12-18T14:59:27.467Z,38.07
2022-12-18T15:00:42.365Z,38.17
2022-12-18T15:02:14.135Z,27.25
2022-12-18T15:03:26.128Z,25.47
2022-12-18T15:04:41.095Z,24.08
2022-12-18T15:05:55.193Z,16.73
2022-12-18T15:07:12.393Z,17.58
2022-12-18T15:08:37.186Z,18.08
2022-12-18T15:10:10.442Z,30.60
2022-12-18T15:11:29.095Z,27.92
2022-12-18T15:12:48.474Z,23.20
2022-12-18T15:14:01.239Z,21.00
2022-12-18T15:15:31.317Z,29.00
2022-12-18T15:16:46.071Z,26.55
2022-12-18T15:17:58.729Z,32.17
2022-12-18T15:19:10.188Z,29.63
2022-12-18T15:20:21.681Z,25.70
2022-12-18T15:21:33.389Z,22.48
2022-12-18T15:22:48.438Z,27.00
2022-12-18T15:23:59.925Z,54.13
2022-12-18T15:25:29.702Z,67.28
2022-12-18T15:26:41.233Z,45.05
2022-12-18T15:27:52.936Z,43.15
2022-12-18T15:29:04.521Z,23.65
2022-12-18T15:30:16.001Z,26.65
2022-12-18T15:31:32.203Z,27.45
2022-12-18T15:32:44.322Z,25.55
2022-12-18T15:33:55.821Z,27.88
2022-12-18T15:35:10.289Z,21.20
2022-12-18T15:36:26.200Z,18.73
2022-12-18T15:37:39.185Z,22.20
2022-12-18T15:38:52.142Z,22.20
2022-12-18T15:40:03.965Z,26.23
2022-12-18T15:41:21.427Z,24.80
2022-12-18T15:42:54.528Z,20.58
2022-12-18T15:44:24.858Z,28.23
2022-12-18T15:45:36.571Z,23.30
2022-12-18T15:46:48.103Z,22.23
2022-12-18T15:47:59.651Z,22.55
2022-12-18T15:49:11.140Z,29.67
2022-12-18T15:50:23.605Z,22.73
2022-12-18T15:51:39.179Z,31.17
2022-12-18T15:52:52.200Z,35.20
2022-12-18T15:54:06.371Z,33.00
2022-12-18T15:55:38.737Z,30.90
2022-12-18T15:57:12.515Z,30.58
2022-12-18T15:58:25.141Z,31.40
2022-12-18T15:59:37.416Z,27.48
2022-12-18T16:00:49.602Z,23.45
2022-12-18T16:02:01.890Z,21.63
2022-12-18T16:03:14.163Z,20.92
2022-12-18T16:04:27.236Z,30.40
2022-12-18T16:05:39.543Z,26.75
2022-12-18T16:08:24.526Z,24.17
2022-12-18T16:09:37.428Z,27.70
2022-12-18T16:10:48.854Z,32.45
2022-12-18T16:12:00.337Z,30.77
2022-12-18T16:13:12.877Z,26.05
2022-12-18T16:14:28.151Z,25.45